Time;durP1;ratioP1;P1;durP2;ratioP2;P2;SDS_P1;SDS_P2;PMS_P1;PMS_P2;Temp;Humidity;BMP_temperature;BMP_pressure;BME280_temperature;BME280_humidity;BME280_pressure;Samples;Min_cycle;Max_cycle;Signal;HPM_P1;HPM_P2
2022/06/10 00:01:58;;;;;;;;;7.25;6.25;;;;;19.18;55.48;101567.22;5111812;27;45198;-80
2022/06/10 00:04:24;;;;;;;;;6.00;5.00;;;;;19.31;55.73;101578.94;5129148;27;44971;-80
2022/06/10 00:06:49;;;;;;;;;5.75;5.25;;;;;19.45;55.47;101595.06;5129441;27;45096;-78
2022/06/10 00:09:15;;;;;;;;;7.50;5.75;;;;;19.31;56.68;101570.94;5114801;27;45062;-79
2022/06/10 00:11:41;;;;;;;;;6.25;6.00;;;;;19.24;56.84;101561.97;5113209;27;45065;-79
2022/06/10 00:14:06;;;;;;;;;4.50;4.50;;;;;19.14;56.93;101554.72;5114832;27;45473;-78
2022/06/10 00:16:32;;;;;;;;;4.50;4.50;;;;;19.28;57.30;101589.56;5110388;27;45101;-79
2022/06/10 00:18:57;;;;;;;;;6.25;6.00;;;;;19.07;57.14;101569.75;5111691;27;45088;-78
2022/06/10 00:21:23;;;;;;;;;5.25;5.25;;;;;19.15;57.36;101592.94;5111280;27;45344;-78
2022/06/10 00:23:50;;;;;;;;;5.75;5.00;;;;;18.99;57.23;101592.72;5111470;27;45059;-80
2022/06/10 00:26:15;;;;;;;;;6.00;6.00;;;;;19.00;57.56;101606.94;5115016;27;45610;-78
2022/06/10 00:28:43;;;;;;;;;6.75;6.50;;;;;18.79;58.42;101578.25;5131584;27;45232;-78
2022/06/10 00:31:09;;;;;;;;;5.25;5.00;;;;;18.89;58.06;101603.25;5112205;27;45294;-79
2022/06/10 00:33:35;;;;;;;;;6.00;5.00;;;;;18.52;58.23;101560.97;5096964;27;45487;-78
2022/06/10 00:36:02;;;;;;;;;7.00;6.00;;;;;18.68;58.66;101602.06;5095743;27;47205;-78
2022/06/10 00:38:28;;;;;;;;;7.00;6.25;;;;;18.65;58.85;101603.75;5092141;27;45417;-78
2022/06/10 00:40:55;;;;;;;;;6.00;6.00;;;;;18.47;59.61;101581.31;5110378;27;45244;-79
2022/06/10 00:43:24;;;;;;;;;4.50;4.50;;;;;18.45;59.57;101587.47;5110351;27;46368;-80
2022/06/10 00:45:55;;;;;;;;;7.50;6.50;;;;;18.43;59.45;101590.09;5119909;27;46366;-78
2022/06/10 00:48:53;;;;;;;;;6.00;6.00;;;;;18.37;60.01;101583.75;5110926;27;45671;-79
2022/06/10 00:51:31;;;;;;;;;6.50;6.00;;;;;18.45;60.04;101606.97;5109703;27;45124;-79
2022/06/10 00:54:10;;;;;;;;;6.25;6.00;;;;;18.23;59.85;101576.47;5110035;27;45474;-79
2022/06/10 00:56:40;;;;;;;;;8.00;6.50;;;;;18.23;60.51;101583.56;5115165;27;45862;-79
2022/06/10 00:59:20;;;;;;;;;8.25;7.50;;;;;18.30;60.61;101599.63;5111723;27;45841;-78
2022/06/10 01:01:46;;;;;;;;;5.75;5.00;;;;;18.19;60.60;101582.59;5114688;27;45382;-78
2022/06/10 01:04:11;;;;;;;;;6.00;5.00;;;;;18.04;60.40;101563.72;5121241;27;44898;-79
2022/06/10 01:06:37;;;;;;;;;6.00;5.25;;;;;18.02;60.52;101566.34;5108441;27;46700;-79
2022/06/10 01:09:03;;;;;;;;;6.75;6.75;;;;;18.15;60.75;101582.53;5117157;27;45040;-78
2022/06/10 01:11:38;;;;;;;;;5.25;5.00;;;;;18.17;60.83;101589.66;5118632;27;45464;-78
2022/06/10 01:14:13;;;;;;;;;7.50;6.75;;;;;18.09;60.73;101591.31;5115922;27;45491;-77
2022/06/10 01:17:05;;;;;;;;;5.00;5.00;;;;;18.15;60.91;101595.84;5094704;27;47309;-80
2022/06/10 01:19:41;;;;;;;;;6.00;5.50;;;;;17.83;60.99;101542.94;5109746;27;45535;-78
2022/06/10 01:22:42;;;;;;;;;7.00;7.00;;;;;18.16;60.79;101594.97;5109907;27;45088;-78
2022/06/10 01:25:47;;;;;;;;;5.00;5.00;;;;;18.09;60.93;101585.09;5126407;27;45139;-78
2022/06/10 01:28:43;;;;;;;;;8.25;7.00;;;;;18.21;60.99;101594.16;5129695;27;45954;-79
2022/06/10 01:31:27;;;;;;;;;5.75;5.75;;;;;18.24;61.00;101593.34;5129040;27;45569;-78
2022/06/10 01:34:10;;;;;;;;;8.25;7.75;;;;;18.26;60.74;101596.91;5127071;27;45023;-78
2022/06/10 01:36:54;;;;;;;;;7.50;6.50;;;;;18.16;60.81;101573.66;5109843;27;45201;-79
2022/06/10 01:39:51;;;;;;;;;6.50;6.00;;;;;18.08;60.81;101556.66;5109487;27;46063;-79
2022/06/10 01:42:30;;;;;;;;;6.50;5.75;;;;;18.24;61.24;101583.56;5114070;27;45554;-79
2022/06/10 01:45:11;;;;;;;;;6.75;5.75;;;;;18.24;60.68;101588.91;5110477;27;45397;-78
2022/06/10 01:47:51;;;;;;;;;6.00;5.75;;;;;18.24;60.81;101594.22;5110080;27;45389;-78
2022/06/10 01:50:23;;;;;;;;;6.00;6.00;;;;;18.08;60.80;101570.91;5093184;27;47841;-78
2022/06/10 01:52:56;;;;;;;;;6.00;6.00;;;;;18.18;60.89;101586.16;5129622;27;45150;-79
2022/06/10 01:55:26;;;;;;;;;5.75;5.75;;;;;18.09;61.21;101566.47;5126941;27;45037;-79
2022/06/10 01:58:06;;;;;;;;;6.50;5.50;;;;;17.91;61.00;101546.66;5098982;27;45207;-80
2022/06/10 02:00:34;;;;;;;;;6.00;5.25;;;;;18.09;61.37;101577.13;5117136;27;45726;-78
2022/06/10 02:03:08;;;;;;;;;5.75;5.75;;;;;18.04;60.98;101575.25;5128830;27;45213;-79
2022/06/10 02:05:44;;;;;;;;;6.00;5.00;;;;;18.03;61.11;101570.81;5111356;27;45397;-78
2022/06/10 02:08:33;;;;;;;;;5.75;5.50;;;;;17.99;60.06;101570.72;5118418;27;45456;-79
2022/06/10 02:11:09;;;;;;;;;5.25;5.00;;;;;18.17;60.48;101592.31;5118246;27;46001;-79
2022/06/10 02:14:00;;;;;;;;;5.25;5.00;;;;;17.92;60.18;101552.84;5116214;27;45056;-80
2022/06/10 02:16:37;;;;;;;;;5.50;4.75;;;;;18.12;60.73;101585.13;5090460;27;45372;-79
2022/06/10 02:19:21;;;;;;;;;4.75;4.75;;;;;18.20;60.60;101595.03;5128738;27;45122;-80
2022/06/10 02:21:52;;;;;;;;;5.25;5.00;;;;;17.95;60.63;101559.13;5130111;27;46203;-79
2022/06/10 02:24:24;;;;;;;;;7.50;6.00;;;;;18.12;60.75;101588.69;5129376;27;45702;-79
2022/06/10 02:26:52;;;;;;;;;5.25;5.00;;;;;18.05;61.03;101582.38;5127175;27;45246;-79
2022/06/10 02:29:40;;;;;;;;;6.00;5.50;;;;;18.11;60.74;101596.66;5090271;27;45172;-78
2022/06/10 02:32:07;;;;;;;;;5.00;5.00;;;;;17.76;61.00;101543.72;5108117;27;45516;-79
2022/06/10 02:34:33;;;;;;;;;9.00;6.50;;;;;17.97;61.28;101584.00;5111123;27;45527;-79
2022/06/10 02:37:13;;;;;;;;;6.25;6.00;;;;;17.98;61.23;101591.13;5112004;27;45056;-79
2022/06/10 02:39:49;;;;;;;;;6.00;6.00;;;;;17.93;60.97;101602.53;5112396;27;45178;-80
2022/06/10 02:42:24;;;;;;;;;6.50;6.50;;;;;17.94;60.84;101605.22;5111991;27;45941;-79
2022/06/10 02:45:08;;;;;;;;;6.25;6.00;;;;;18.01;61.22;101607.13;5129515;27;45118;-80
2022/06/10 02:47:48;;;;;;;;;7.00;7.00;;;;;17.68;61.05;101553.28;5131980;27;45236;-79
2022/06/10 02:50:15;;;;;;;;;5.75;4.50;;;;;17.88;61.40;101599.81;5122074;27;45327;-79
2022/06/10 02:52:41;;;;;;;;;6.25;5.75;;;;;17.71;61.83;101577.28;5112218;27;45838;-79
2022/06/10 02:55:13;;;;;;;;;2.25;2.00;;;;;17.77;61.41;101593.38;5117818;27;45228;-80
2022/06/10 03:03:23;;;;;;;;;7.00;7.00;;;;;17.76;61.88;101616.41;5126395;27;45068;-78
2022/06/10 03:06:19;;;;;;;;;4.75;4.75;;;;;17.74;61.63;101614.59;5111894;27;45626;-79
2022/06/10 03:08:51;;;;;;;;;5.00;4.75;;;;;17.57;62.09;101605.34;5112027;27;45255;-79
2022/06/10 03:11:46;;;;;;;;;5.50;5.00;;;;;17.72;61.97;101616.28;5130939;27;45147;-79
2022/06/10 03:14:40;;;;;;;;;6.50;6.00;;;;;17.72;62.38;101613.63;5074759;27;46002;-79
2022/06/10 03:17:29;;;;;;;;;5.00;4.50;;;;;17.63;62.07;101600.16;5129384;27;45637;-80
2022/06/10 03:20:20;;;;;;;;;6.00;5.50;;;;;17.73;61.83;101618.09;5113312;27;45346;-80
2022/06/10 03:23:00;;;;;;;;;5.25;4.50;;;;;17.72;61.79;101622.50;5124740;27;45046;-77
2022/06/10 03:25:42;;;;;;;;;4.25;4.25;;;;;17.57;61.88;101608.91;5114303;27;46028;-80
2022/06/10 03:28:25;;;;;;;;;4.25;3.75;;;;;17.69;61.71;101621.56;5111195;27;45948;-80
2022/06/10 03:31:06;;;;;;;;;3.50;3.50;;;;;17.71;61.88;101630.44;5111502;27;45342;-79
2022/06/10 03:33:37;;;;;;;;;4.25;3.75;;;;;17.64;61.90;101612.59;5120378;27;45084;-78
2022/06/10 03:36:09;;;;;;;;;5.75;5.75;;;;;17.72;62.16;101629.56;5131805;27;45316;-79
2022/06/10 03:38:40;;;;;;;;;5.50;5.00;;;;;17.73;61.79;101631.41;5127681;27;45164;-79
2022/06/10 03:41:06;;;;;;;;;4.50;4.25;;;;;17.65;61.73;101606.41;5120712;27;45462;-79
2022/06/10 03:43:35;;;;;;;;;5.75;5.75;;;;;17.78;62.26;101620.00;5129980;27;45057;-80
2022/06/10 03:46:06;;;;;;;;;6.00;4.50;;;;;17.69;61.65;101613.59;5109656;27;45123;-77
2022/06/10 03:48:37;;;;;;;;;6.75;6.00;;;;;17.74;61.77;101633.22;5128488;27;45710;-78
2022/06/10 03:51:03;;;;;;;;;6.25;5.50;;;;;17.73;62.20;101626.06;5131833;27;45207;-78
2022/06/10 03:53:29;;;;;;;;;4.00;4.00;;;;;17.60;61.69;101600.13;5112825;27;45151;-79
2022/06/10 03:55:54;;;;;;;;;4.25;4.00;;;;;17.65;61.91;101614.38;5111330;27;45381;-78
2022/06/10 03:58:20;;;;;;;;;5.25;5.25;;;;;17.52;61.69;101595.53;5122631;27;45245;-79
2022/06/10 04:00:45;;;;;;;;;5.50;5.50;;;;;17.67;62.02;101623.28;5126379;27;45058;-78
2022/06/10 04:03:11;;;;;;;;;2.50;2.50;;;;;17.61;62.17;101609.88;5122609;27;45293;-78
2022/06/10 04:05:37;;;;;;;;;5.25;4.75;;;;;17.65;62.21;101619.72;5112118;27;45539;-78
2022/06/10 04:08:03;;;;;;;;;4.50;4.50;;;;;17.63;61.78;101619.66;5113272;27;45278;-79
2022/06/10 04:10:29;;;;;;;;;4.00;4.00;;;;;17.49;62.21;101590.16;5123445;27;45512;-79
2022/06/10 04:12:55;;;;;;;;;5.50;5.50;;;;;17.63;62.48;101611.69;5125730;27;45135;-80
2022/06/10 04:15:24;;;;;;;;;4.50;4.50;;;;;17.49;62.56;101591.94;5121227;27;46204;-80
2022/06/10 04:17:50;;;;;;;;;7.00;4.50;;;;;17.50;62.07;101601.69;5110315;27;46068;-78
2022/06/10 04:20:18;;;;;;;;;5.25;4.50;;;;;17.66;62.22;101635.69;5107676;27;45424;-79
2022/06/10 04:22:44;;;;;;;;;4.50;4.00;;;;;17.64;62.16;101632.09;5100005;27;45538;-79
2022/06/10 04:25:10;;;;;;;;;5.00;4.75;;;;;17.72;62.05;101637.56;5109234;27;46327;-78
2022/06/10 04:27:35;;;;;;;;;6.00;5.50;;;;;17.75;62.01;101625.25;5117531;27;45462;-79
2022/06/10 04:30:01;;;;;;;;;5.25;4.25;;;;;17.88;61.78;101645.03;5121547;27;46627;-78
2022/06/10 04:32:26;;;;;;;;;4.50;4.00;;;;;17.85;61.51;101630.75;5111431;27;45453;-78
2022/06/10 04:34:52;;;;;;;;;6.75;5.25;;;;;17.84;61.94;101621.88;5084829;27;48132;-77
2022/06/10 04:37:17;;;;;;;;;5.00;4.75;;;;;17.84;61.21;101616.56;5116544;27;45189;-78
2022/06/10 04:39:43;;;;;;;;;5.25;5.00;;;;;17.91;61.67;101631.75;5123147;27;45679;-77
2022/06/10 04:42:08;;;;;;;;;5.00;3.00;;;;;17.68;61.54;101587.84;5122007;27;45170;-78
2022/06/10 04:44:33;;;;;;;;;5.00;5.00;;;;;17.95;61.43;101641.59;5119892;27;45462;-78
2022/06/10 04:46:59;;;;;;;;;4.25;4.25;;;;;18.08;61.74;101655.09;5115060;27;45284;-78
2022/06/10 04:49:28;;;;;;;;;4.00;4.00;;;;;18.02;61.84;101637.28;5117626;27;45484;-78
2022/06/10 04:51:54;;;;;;;;;5.00;4.00;;;;;17.87;61.96;101597.09;5117698;27;45439;-79
2022/06/10 04:54:19;;;;;;;;;3.75;3.50;;;;;18.01;61.77;101619.53;5112347;27;49347;-78
2022/06/10 04:56:44;;;;;;;;;4.75;4.75;;;;;17.88;60.98;101589.16;5112462;27;45162;-78
2022/06/10 04:59:10;;;;;;;;;5.00;3.75;;;;;18.10;61.49;101629.44;5107613;27;45454;-79
2022/06/10 05:01:35;;;;;;;;;4.75;3.75;;;;;18.04;61.43;101616.94;5111234;27;45164;-78
2022/06/10 05:04:00;;;;;;;;;4.75;4.75;;;;;18.01;61.20;101611.53;5119695;27;46106;-78
2022/06/10 05:06:26;;;;;;;;;5.25;4.50;;;;;18.14;61.69;101628.63;5117554;27;45314;-78
2022/06/10 05:08:51;;;;;;;;;7.50;6.00;;;;;18.20;61.15;101632.28;5110156;27;45471;-79
2022/06/10 05:11:17;;;;;;;;;4.25;4.00;;;;;17.91;61.64;101589.19;5104852;27;44986;-78
2022/06/10 05:13:42;;;;;;;;;3.75;3.75;;;;;18.08;61.43;101613.47;5107842;27;45230;-78
2022/06/10 05:16:07;;;;;;;;;5.25;3.75;;;;;18.14;61.80;101613.56;5111877;27;45064;-79
2022/06/10 05:18:33;;;;;;;;;3.75;3.75;;;;;18.21;61.37;101620.78;5109682;27;45097;-78
2022/06/10 05:21:00;;;;;;;;;4.50;4.50;;;;;18.29;61.58;101628.91;5108387;27;45141;-79
2022/06/10 05:23:26;;;;;;;;;2.00;2.00;;;;;18.23;61.90;101615.50;5125574;27;45252;-79
2022/06/10 05:25:52;;;;;;;;;5.75;4.75;;;;;18.20;61.97;101605.69;5128758;27;45621;-78
2022/06/10 05:28:19;;;;;;;;;4.50;4.00;;;;;18.39;61.26;101641.50;5127897;27;45199;-78
2022/06/10 05:30:45;;;;;;;;;3.00;3.00;;;;;18.27;60.91;101620.91;5110819;27;46454;-79
2022/06/10 05:33:12;;;;;;;;;4.50;4.25;;;;;18.42;61.77;101652.19;5110548;27;45870;-78
2022/06/10 05:35:38;;;;;;;;;5.00;4.25;;;;;18.11;61.73;101588.66;5125402;27;45204;-78
2022/06/10 05:38:04;;;;;;;;;3.75;3.75;;;;;18.26;61.96;101620.84;5121894;27;45307;-79
2022/06/10 05:40:31;;;;;;;;;4.75;4.50;;;;;18.44;62.10;101655.78;5125442;27;45194;-78
2022/06/10 05:42:59;;;;;;;;;4.75;4.00;;;;;18.39;61.47;101638.84;5115634;27;45900;-78
2022/06/10 05:45:26;;;;;;;;;4.00;4.00;;;;;18.34;61.53;101635.19;5116948;27;45236;-79
2022/06/10 05:47:58;;;;;;;;;5.00;4.00;;;;;18.43;62.03;101643.34;5109087;27;45117;-78
2022/06/10 05:50:36;;;;;;;;;3.25;3.25;;;;;18.34;62.11;101626.31;5104161;27;45422;-78
2022/06/10 05:53:03;;;;;;;;;8.00;5.00;;;;;18.50;62.03;101644.31;5109059;27;46114;-78
2022/06/10 05:55:33;;;;;;;;;4.75;4.50;;;;;18.29;61.39;101615.59;5103147;27;45728;-78
2022/06/10 05:57:58;;;;;;;;;5.75;5.00;;;;;18.64;61.89;101673.84;5124619;27;45101;-78
2022/06/10 06:00:28;;;;;;;;;5.75;4.75;;;;;18.57;61.92;101662.22;5124353;27;45083;-78
2022/06/10 06:02:54;;;;;;;;;4.00;4.00;;;;;18.64;62.12;101671.19;5126986;27;45286;-79
2022/06/10 06:05:20;;;;;;;;;4.25;4.00;;;;;18.77;61.97;101683.88;5108031;27;45225;-78
2022/06/10 06:07:47;;;;;;;;;4.00;3.00;;;;;18.72;61.94;101680.25;5110231;27;45028;-78
2022/06/10 06:10:19;;;;;;;;;5.00;5.00;;;;;18.84;62.31;101693.75;5112476;27;45133;-78
2022/06/10 06:12:45;;;;;;;;;5.50;5.00;;;;;18.78;61.52;101685.66;5111946;27;46003;-79
2022/06/10 06:15:12;;;;;;;;;4.00;3.00;;;;;18.68;61.56;101662.38;5112821;27;46066;-80
2022/06/10 06:17:38;;;;;;;;;6.50;5.00;;;;;18.65;61.35;101657.88;5113357;27;45217;-79
2022/06/10 06:20:04;;;;;;;;;5.00;3.25;;;;;18.58;61.59;101647.13;5113044;27;45094;-79
2022/06/10 06:22:30;;;;;;;;;3.25;3.25;;;;;18.74;61.40;101666.06;5120274;27;45712;-78
2022/06/10 06:24:55;;;;;;;;;4.75;3.75;;;;;18.85;61.21;101684.88;5130693;27;45019;-79
2022/06/10 06:27:21;;;;;;;;;3.50;3.00;;;;;18.88;61.51;101690.25;5129757;27;45476;-79
2022/06/10 06:29:46;;;;;;;;;3.75;3.00;;;;;18.80;61.81;101670.59;5131493;27;45375;-78
2022/06/10 06:32:12;;;;;;;;;3.75;3.25;;;;;18.83;61.54;101678.63;5110151;27;46646;-78
2022/06/10 06:34:38;;;;;;;;;3.75;3.00;;;;;18.99;61.46;101699.31;5127028;27;45068;-78
2022/06/10 06:37:04;;;;;;;;;5.00;4.00;;;;;18.96;61.77;101677.94;5112061;27;45112;-79
2022/06/10 06:39:29;;;;;;;;;3.25;2.25;;;;;19.06;60.99;101684.28;5111776;27;45067;-78
2022/06/10 06:41:55;;;;;;;;;2.25;2.25;;;;;19.05;61.41;101680.72;5112445;27;45416;-78
2022/06/10 06:44:20;;;;;;;;;3.25;3.00;;;;;19.19;61.29;101699.59;5113209;27;45194;-78
2022/06/10 06:46:46;;;;;;;;;2.25;2.25;;;;;19.02;61.81;101655.84;5123918;27;45363;-78
2022/06/10 06:49:16;;;;;;;;;4.00;3.25;;;;;19.29;61.82;101697.97;5132188;27;45172;-78
2022/06/10 06:51:42;;;;;;;;;4.75;3.00;;;;;19.14;61.22;101668.44;5130698;27;45825;-78
2022/06/10 06:54:08;;;;;;;;;2.00;2.00;;;;;19.19;60.61;101678.28;5131636;27;45056;-78
2022/06/10 06:56:33;;;;;;;;;1.50;1.50;;;;;19.23;60.87;101671.22;5130637;27;45082;-77
2022/06/10 06:58:58;;;;;;;;;2.75;2.75;;;;;19.15;60.44;101657.78;5103601;27;45688;-78
2022/06/10 07:01:24;;;;;;;;;3.25;2.75;;;;;19.42;60.55;101705.25;5101815;27;46237;-79
2022/06/10 07:03:49;;;;;;;;;5.00;4.50;;;;;19.28;61.13;101680.19;5122666;27;45221;-78
2022/06/10 07:06:14;;;;;;;;;5.50;4.25;;;;;19.23;60.83;101666.78;5120628;27;45018;-78
2022/06/10 07:08:40;;;;;;;;;3.00;3.00;;;;;19.24;61.11;101665.03;5122420;27;45129;-78
2022/06/10 07:11:08;;;;;;;;;3.00;3.00;;;;;19.47;61.08;101703.56;5119112;27;45330;-79
2022/06/10 07:13:34;;;;;;;;;5.00;4.75;;;;;19.24;61.19;101659.69;5121258;27;45068;-78
2022/06/10 07:16:03;;;;;;;;;4.00;4.00;;;;;19.36;60.98;101674.94;5120071;27;45198;-80
2022/06/10 07:18:30;;;;;;;;;4.50;3.00;;;;;19.56;60.79;101698.34;5113753;27;45266;-79
2022/06/10 07:20:56;;;;;;;;;4.75;4.00;;;;;19.51;61.75;101684.06;5116630;27;45771;-79
2022/06/10 07:23:21;;;;;;;;;3.00;2.75;;;;;19.46;61.29;101667.09;5111328;27;45505;-80
2022/06/10 07:25:47;;;;;;;;;2.25;2.25;;;;;19.52;61.96;101676.94;5108114;27;45551;-79
2022/06/10 07:28:13;;;;;;;;;2.00;2.00;;;;;19.52;61.57;101663.63;5092327;27;45249;-80
2022/06/10 07:30:39;;;;;;;;;3.50;3.50;;;;;19.67;61.05;101689.63;5120864;27;45762;-80
2022/06/10 07:33:05;;;;;;;;;3.50;3.00;;;;;19.73;61.03;101695.03;5121289;27;45155;-82
2022/06/10 07:35:31;;;;;;;;;3.50;2.00;;;;;19.76;60.84;101701.31;5131685;27;45068;-80
2022/06/10 07:38:00;;;;;;;;;2.00;2.00;;;;;19.52;60.84;101644.97;5113537;27;45105;-80
2022/06/10 07:43:15;;;;;;;;;2.00;2.00;;;;;19.57;60.18;101641.47;5110585;27;45557;-80
2022/06/10 07:45:41;;;;;;;;;1.25;1.25;;;;;20.09;59.97;101706.09;5111101;27;45148;-80
2022/06/10 07:48:08;;;;;;;;;3.00;2.00;;;;;19.53;59.21;101596.06;5109963;27;45042;-79
2022/06/10 07:50:34;;;;;;;;;1.00;1.00;;;;;20.17;59.27;101689.28;5114152;27;45879;-80
2022/06/10 07:52:59;;;;;;;;;3.00;2.00;;;;;20.18;59.67;101681.28;5129326;27;45094;-80
2022/06/10 07:55:25;;;;;;;;;3.75;3.00;;;;;20.40;58.48;101701.09;5130737;27;45315;-79
2022/06/10 07:57:51;;;;;;;;;3.00;2.00;;;;;20.49;58.42;101711.91;5112245;27;45176;-80
2022/06/10 08:00:18;;;;;;;;;2.50;2.00;;;;;20.49;59.24;101711.91;5125027;27;45375;-78
2022/06/10 08:02:43;;;;;;;;;2.25;2.00;;;;;20.37;58.13;101687.72;5131203;27;45671;-78
2022/06/10 08:05:12;;;;;;;;;3.50;3.00;;;;;20.27;58.67;101664.47;5130504;27;45000;-78
2022/06/10 08:07:38;;;;;;;;;3.00;2.00;;;;;20.31;57.58;101683.22;5129954;27;45249;-78
2022/06/10 08:10:14;;;;;;;;;3.00;2.00;;;;;20.24;57.93;101667.09;5120994;27;45837;-78
2022/06/10 08:12:40;;;;;;;;;2.75;2.75;;;;;20.42;58.26;101690.44;5122760;27;45159;-78
2022/06/10 08:15:06;;;;;;;;;1.75;1.75;;;;;20.37;58.43;101671.69;5111584;27;45148;-80
2022/06/10 08:17:31;;;;;;;;;2.00;2.00;;;;;20.28;58.09;101647.56;5129767;27;45358;-78
2022/06/10 08:19:56;;;;;;;;;2.00;1.00;;;;;20.41;58.39;101670.84;5124918;27;46013;-79
2022/06/10 08:22:35;;;;;;;;;1.75;1.75;;;;;20.38;58.43;101659.22;5119593;27;45295;-78
2022/06/10 08:25:06;;;;;;;;;3.00;2.00;;;;;20.52;58.20;101678.97;5109518;27;45059;-78
2022/06/10 08:27:33;;;;;;;;;4.00;3.00;;;;;20.43;58.51;101658.38;5129988;27;45076;-79
2022/06/10 08:29:58;;;;;;;;;2.00;2.00;;;;;20.42;58.16;101651.25;5113850;27;45666;-78
2022/06/10 08:32:24;;;;;;;;;3.00;2.00;;;;;20.68;57.53;101699.59;5110414;27;45162;-78
2022/06/10 08:34:50;;;;;;;;;2.00;2.00;;;;;20.69;57.43;101673.75;5120761;27;45135;-78
2022/06/10 08:37:16;;;;;;;;;1.00;1.00;;;;;20.68;56.54;101659.50;5122027;27;45153;-78
2022/06/10 08:39:41;;;;;;;;;3.00;2.00;;;;;20.72;55.54;101656.00;5130172;27;45747;-78
2022/06/10 08:42:09;;;;;;;;;1.00;1.00;;;;;20.94;55.53;101698.91;5129884;27;45091;-78
2022/06/10 08:44:44;;;;;;;;;1.00;1.00;;;;;20.74;54.88;101658.66;5131292;27;45335;-79
2022/06/10 08:47:25;;;;;;;;;1.75;1.00;;;;;20.86;55.34;101682.81;5127941;27;45280;-79
2022/06/10 08:50:21;;;;;;;;;1.00;1.00;;;;;20.95;54.88;101685.56;5120304;27;45575;-78
2022/06/10 08:53:16;;;;;;;;;1.25;1.25;;;;;20.99;55.57;101695.41;5129029;27;45200;-79
2022/06/10 08:56:03;;;;;;;;;1.75;1.75;;;;;21.03;55.51;101688.25;5109100;27;45146;-79
2022/06/10 08:58:51;;;;;;;;;1.00;1.00;;;;;20.85;55.46;101644.50;5110015;27;45024;-78
2022/06/10 09:01:20;;;;;;;;;1.50;1.50;;;;;21.01;55.85;101666.88;5108363;27;45394;-78
2022/06/10 09:04:00;;;;;;;;;2.00;1.00;;;;;21.20;56.10;101677.69;5109397;27;45482;-79
2022/06/10 09:06:38;;;;;;;;;2.00;1.00;;;;;21.20;54.75;101669.69;5113926;27;45219;-78
2022/06/10 09:09:06;;;;;;;;;1.00;1.00;;;;;21.36;54.35;101687.63;5113282;27;45103;-79
2022/06/10 09:11:47;;;;;;;;;1.50;1.00;;;;;21.16;53.90;101662.50;5120541;27;45390;-79
2022/06/10 09:14:27;;;;;;;;;1.50;1.50;;;;;21.25;54.05;101657.22;5116623;27;45620;-79
2022/06/10 09:17:18;;;;;;;;;0.50;0.00;;;;;21.48;53.73;101686.81;5109121;27;45309;-80
2022/06/10 09:20:08;;;;;;;;;2.00;1.00;;;;;21.49;53.21;101672.53;5111699;27;45063;-79
2022/06/10 09:22:54;;;;;;;;;1.00;1.00;;;;;21.55;53.93;101672.56;5122062;27;45353;-78
2022/06/10 09:25:30;;;;;;;;;1.00;1.00;;;;;21.58;52.96;101675.25;5128157;27;45943;-78
2022/06/10 09:27:58;;;;;;;;;2.00;2.00;;;;;21.63;53.58;101669.03;5111840;27;45135;-78
2022/06/10 09:30:52;;;;;;;;;1.75;1.75;;;;;21.60;53.26;101655.63;5129177;27;45346;-79
2022/06/10 09:33:41;;;;;;;;;1.00;1.00;;;;;21.61;53.48;101651.16;5103229;27;45388;-78
2022/06/10 09:36:28;;;;;;;;;1.00;1.00;;;;;21.78;53.00;101673.53;5107546;27;45464;-79
2022/06/10 09:42:50;;;;;;;;;0.00;0.00;;;;;21.85;53.70;101678.00;5108539;27;45121;-78
2022/06/10 09:45:28;;;;;;;;;1.00;1.00;;;;;21.69;53.36;101664.59;5106353;27;45701;-79
2022/06/10 09:48:14;;;;;;;;;0.75;0.25;;;;;21.85;52.42;101693.19;5107929;27;45276;-78
2022/06/10 09:51:04;;;;;;;;;1.00;1.00;;;;;21.89;52.08;101694.97;5107731;27;45097;-78
2022/06/10 09:53:48;;;;;;;;;1.00;0.00;;;;;21.83;51.91;101670.88;5089269;27;45320;-80
2022/06/10 09:56:40;;;;;;;;;1.00;1.00;;;;;21.96;52.68;101686.06;5107644;27;45646;-78
2022/06/10 09:59:23;;;;;;;;;1.00;1.00;;;;;21.99;52.72;101702.16;5107531;27;45295;-79
2022/06/10 10:01:54;;;;;;;;;2.00;1.00;;;;;22.04;52.19;101689.66;5088958;27;45370;-79
2022/06/10 10:04:33;;;;;;;;;1.00;1.00;;;;;21.92;52.30;101656.59;5109096;27;45141;-78
2022/06/10 10:07:13;;;;;;;;;2.00;1.00;;;;;22.00;52.19;101670.91;5109315;27;45800;-79
2022/06/10 10:09:50;;;;;;;;;2.00;2.00;;;;;22.28;52.04;101685.28;5089312;27;45368;-78
2022/06/10 10:12:40;;;;;;;;;2.25;2.00;;;;;22.30;51.53;101673.69;5090469;27;45093;-78
2022/06/10 10:15:15;;;;;;;;;2.00;2.00;;;;;22.67;51.43;101703.19;5089307;27;45017;-78
2022/06/10 10:18:35;;;;;;;;;1.00;1.00;;;;;22.88;51.52;101688.88;5090033;27;46049;-78
2022/06/10 10:21:15;;;;;;;;;2.00;2.00;;;;;23.17;50.90;101697.81;5045506;28;45536;-79
2022/06/10 10:23:44;;;;;;;;;1.25;1.25;;;;;23.18;51.30;101637.00;5090602;27;44956;-78
2022/06/10 10:26:29;;;;;;;;;2.00;2.00;;;;;23.77;50.37;101684.19;5107799;27;45320;-78
2022/06/10 10:29:11;;;;;;;;;3.00;2.00;;;;;24.11;50.67;101692.06;5108688;27;45771;-78
2022/06/10 10:31:42;;;;;;;;;2.00;2.00;;;;;24.06;49.41;101654.50;5108323;27;45157;-78
2022/06/10 10:34:20;;;;;;;;;1.00;1.00;;;;;24.02;49.29;101633.94;5108463;27;45144;-79
2022/06/10 10:36:54;;;;;;;;;2.50;2.00;;;;;24.24;48.64;101693.78;5108893;27;45047;-79
2022/06/10 10:39:35;;;;;;;;;3.00;2.50;;;;;24.30;48.69;101696.44;5107998;27;46107;-78
2022/06/10 10:42:06;;;;;;;;;1.00;1.00;;;;;24.29;48.97;101667.78;5108293;27;45511;-79
2022/06/10 10:44:31;;;;;;;;;1.25;1.25;;;;;24.68;49.16;101690.81;5109008;27;45111;-78
2022/06/10 10:47:00;;;;;;;;;2.33;2.00;;;;;24.92;48.43;101694.16;5107951;27;45042;-78
2022/06/10 10:49:35;;;;;;;;;4.00;3.00;;;;;24.87;47.90;101680.75;5123455;27;45395;-78
2022/06/10 10:52:12;;;;;;;;;2.50;2.00;;;;;24.87;47.75;101682.53;5128694;27;45593;-79
2022/06/10 10:54:42;;;;;;;;;3.00;1.50;;;;;24.72;47.75;101648.63;5110148;27;45156;-78
2022/06/10 10:57:21;;;;;;;;;2.00;1.25;;;;;24.78;48.07;101680.84;5131991;27;45021;-79
2022/06/10 10:59:55;;;;;;;;;2.25;2.25;;;;;24.51;48.06;101665.84;5113204;27;47777;-78
2022/06/10 11:02:31;;;;;;;;;2.00;1.50;;;;;24.56;48.26;101682.81;5132013;27;45757;-78
2022/06/10 11:05:15;;;;;;;;;2.00;2.00;;;;;24.43;47.79;101683.81;5132367;27;45098;-78
2022/06/10 11:07:42;;;;;;;;;2.00;1.75;;;;;24.24;48.26;101664.25;5133056;27;45101;-78
2022/06/10 11:10:16;;;;;;;;;3.00;2.00;;;;;24.39;48.66;101674.03;5119169;27;45596;-79
2022/06/10 11:12:41;;;;;;;;;2.00;2.00;;;;;24.19;48.67;101628.47;5112340;27;45646;-78
2022/06/10 11:15:16;;;;;;;;;3.00;2.00;;;;;24.23;48.42;101667.81;5099766;27;45416;-78
2022/06/10 11:17:46;;;;;;;;;3.00;2.50;;;;;24.12;49.43;101662.50;5122311;27;45185;-79
2022/06/10 11:20:14;;;;;;;;;3.00;3.00;;;;;24.49;48.27;101683.78;5123780;27;45961;-79
2022/06/10 11:22:40;;;;;;;;;4.50;3.50;;;;;24.62;47.98;101663.94;5112026;27;45476;-78
2022/06/10 11:25:14;;;;;;;;;2.25;2.25;;;;;25.00;47.69;101677.94;5110556;27;45356;-80
2022/06/10 11:27:49;;;;;;;;;3.00;2.50;;;;;25.36;47.23;101682.06;5103617;27;45447;-79
2022/06/10 11:30:17;;;;;;;;;2.00;2.00;;;;;25.46;47.25;101675.66;5115212;27;46084;-79
2022/06/10 11:32:42;;;;;;;;;2.50;2.50;;;;;25.45;46.86;101685.53;5120307;27;45190;-79
2022/06/10 11:35:26;;;;;;;;;3.00;3.00;;;;;25.34;46.87;101691.97;5131371;27;45148;-79
2022/06/10 11:38:18;;;;;;;;;2.00;2.00;;;;;25.27;46.65;101682.16;5120720;27;45372;-78
2022/06/10 11:40:46;;;;;;;;;3.00;2.25;;;;;25.23;47.20;101673.25;5111071;27;47949;-80
2022/06/10 11:43:22;;;;;;;;;3.00;2.75;;;;;25.36;47.61;101674.00;5111534;27;45319;-81
2022/06/10 11:45:50;;;;;;;;;2.50;2.50;;;;;25.44;47.62;101664.91;5118449;27;45186;-80
2022/06/10 11:48:51;;;;;;;;;1.25;1.25;;;;;25.66;46.52;101672.72;5122146;27;45003;-79
2022/06/10 11:51:31;;;;;;;;;2.75;2.00;;;;;25.95;45.95;101666.97;5092650;27;47106;-78
2022/06/10 11:54:03;;;;;;;;;1.50;1.50;;;;;26.03;46.73;101662.38;5127594;27;45185;-78
2022/06/10 11:59:43;;;;;;;;;2.25;2.00;;;;;25.63;45.85;101616.22;5129110;27;45173;-80
2022/06/10 12:02:17;;;;;;;;;2.50;2.00;;;;;25.94;45.32;101659.81;5110391;27;45339;-78
2022/06/10 12:04:48;;;;;;;;;3.00;3.00;;;;;25.90;46.05;101640.09;5111382;27;45392;-79